createdAt,value
2019-02-21T00:00:42.957Z,11.23
2019-02-21T00:03:13.788Z,12.50
2019-02-21T00:05:45.520Z,12.27
2019-02-21T00:08:16.260Z,12.20
2019-02-21T00:10:46.728Z,11.93
2019-02-21T00:13:17.189Z,12.90
2019-02-21T00:15:47.646Z,13.53
2019-02-21T00:18:18.527Z,13.70
2019-02-21T00:20:49.010Z,13.63
2019-02-21T00:23:20.528Z,13.40
2019-02-21T00:25:51.006Z,13.83
2019-02-21T00:28:21.501Z,13.53
2019-02-21T00:30:52.345Z,13.37
2019-02-21T00:33:22.811Z,13.57
2019-02-21T00:35:53.388Z,13.40
2019-02-21T00:38:23.881Z,13.77
2019-02-21T00:40:54.358Z,14.87
2019-02-21T00:43:25.053Z,14.63
2019-02-21T00:45:55.938Z,14.53
2019-02-21T00:48:26.413Z,14.10
2019-02-21T00:50:56.985Z,15.17
2019-02-21T00:53:28.534Z,15.73
2019-02-21T00:55:59.060Z,14.80
2019-02-21T00:58:30.520Z,15.70
2019-02-21T01:01:01.029Z,14.20
2019-02-21T01:03:31.578Z,14.53
2019-02-21T01:06:02.156Z,14.40
2019-02-21T01:08:32.640Z,15.63
2019-02-21T01:11:03.375Z,14.37
2019-02-21T01:13:33.906Z,14.10
2019-02-21T01:16:04.432Z,15.07
2019-02-21T01:18:36.640Z,13.43
2019-02-21T01:21:07.344Z,15.90
2019-02-21T01:23:37.815Z,14.50
2019-02-21T01:26:08.288Z,15.43
2019-02-21T01:28:39.048Z,13.93
2019-02-21T01:31:09.853Z,14.10
2019-02-21T01:33:40.379Z,14.33
2019-02-21T01:36:10.881Z,13.70
2019-02-21T01:38:41.346Z,14.27
2019-02-21T01:41:11.777Z,13.40
2019-02-21T01:43:42.628Z,14.13
2019-02-21T01:46:13.106Z,14.00
2019-02-21T01:48:43.553Z,15.00
2019-02-21T01:51:14.020Z,13.00
2019-02-21T01:53:44.477Z,14.43
2019-02-21T01:56:15.269Z,13.10
2019-02-21T01:58:45.732Z,13.40
2019-02-21T02:01:17.253Z,15.87
2019-02-21T02:03:48.053Z,13.77
2019-02-21T02:06:18.505Z,14.10
2019-02-21T02:08:49.036Z,13.17
2019-02-21T02:11:19.494Z,13.30
2019-02-21T02:13:49.955Z,14.10
2019-02-21T02:16:20.436Z,15.20
2019-02-21T02:18:50.880Z,14.27
2019-02-21T02:21:21.333Z,13.33
2019-02-21T02:23:52.025Z,13.50
2019-02-21T02:26:22.489Z,13.30
2019-02-21T02:28:53.340Z,13.13
2019-02-21T02:31:23.979Z,13.40
2019-02-21T02:33:55.396Z,14.57
2019-02-21T02:36:25.849Z,14.33
2019-02-21T02:38:56.320Z,15.87
2019-02-21T02:41:27.071Z,15.00
2019-02-21T02:43:57.555Z,14.70
2019-02-21T02:46:28.044Z,13.20
2019-02-21T02:48:58.588Z,13.10
2019-02-21T02:51:29.067Z,13.57
2019-02-21T02:53:59.942Z,14.37
2019-02-21T02:56:30.881Z,14.10
2019-02-21T02:59:01.765Z,14.20
2019-02-21T03:03:59.310Z,15.07
2019-02-21T03:06:29.863Z,13.50
2019-02-21T03:09:00.320Z,14.27
2019-02-21T03:11:31.233Z,15.40
2019-02-21T03:14:02.053Z,13.77
2019-02-21T03:16:32.542Z,14.73
2019-02-21T03:19:03.035Z,14.50
2019-02-21T03:21:33.496Z,15.40
2019-02-21T03:24:03.966Z,14.80
2019-02-21T03:26:34.679Z,15.63
2019-02-21T03:29:05.140Z,15.37
2019-02-21T03:31:52.685Z,14.83
2019-02-21T03:34:07.762Z,16.07
2019-02-21T03:36:38.226Z,15.67
2019-02-21T03:39:09.785Z,16.07
2019-02-21T03:41:40.574Z,15.33
2019-02-21T03:44:11.456Z,16.13
2019-02-21T03:46:42.441Z,15.60
2019-02-21T03:49:13.248Z,16.90
2019-02-21T03:51:44.015Z,14.97
2019-02-21T03:54:14.521Z,16.00
2019-02-21T03:56:45.283Z,14.68
2019-02-21T03:59:15.740Z,15.07
2019-02-21T04:01:46.512Z,15.57
2019-02-21T04:04:16.953Z,15.30
2019-02-21T04:06:47.403Z,15.37
2019-02-21T04:09:17.804Z,14.63
2019-02-21T04:11:48.267Z,14.60
2019-02-21T04:14:20.841Z,14.50
2019-02-21T04:16:51.290Z,14.00
2019-02-21T04:19:21.743Z,15.70
2019-02-21T04:21:52.209Z,14.77
2019-02-21T04:24:22.937Z,15.43
2019-02-21T04:26:56.877Z,14.67
2019-02-21T04:29:27.348Z,14.27
2019-02-21T04:31:58.470Z,14.37
2019-02-21T04:34:29.198Z,13.57
2019-02-21T04:36:59.661Z,12.87
2019-02-21T04:39:30.141Z,13.13
2019-02-21T04:42:00.638Z,12.27
2019-02-21T04:44:31.105Z,15.20
2019-02-21T04:47:01.552Z,15.53
2019-02-21T04:49:32.015Z,13.93
2019-02-21T04:52:02.459Z,14.47
2019-02-21T04:54:33.237Z,14.37
2019-02-21T04:57:03.699Z,13.20
2019-02-21T04:59:34.149Z,13.57
2019-02-21T05:02:04.616Z,13.17
2019-02-21T05:04:35.085Z,13.17
2019-02-21T05:07:06.706Z,13.33
2019-02-21T05:09:37.170Z,13.30
2019-02-21T05:12:07.629Z,13.30
2019-02-21T05:14:38.094Z,14.53
2019-02-21T05:17:08.891Z,13.57
2019-02-21T05:19:39.358Z,13.70
2019-02-21T05:22:09.938Z,13.00
2019-02-21T05:24:40.403Z,13.90
2019-02-21T05:27:20.863Z,12.93
2019-02-21T05:29:51.429Z,15.10
2019-02-21T05:32:53.374Z,14.37
2019-02-21T05:35:31.478Z,14.77
2019-02-21T05:38:39.192Z,14.23
2019-02-21T05:41:36.537Z,14.30
2019-02-21T05:44:15.869Z,14.27
2019-02-21T05:47:08.458Z,14.43
2019-02-21T05:49:53.279Z,14.37
2019-02-21T05:52:34.896Z,14.90
2019-02-21T05:55:10.547Z,13.73
2019-02-21T05:58:00.488Z,13.93
2019-02-21T06:00:44.382Z,13.53
2019-02-21T06:03:35.733Z,14.10
2019-02-21T06:06:23.208Z,13.53
2019-02-21T06:09:06.438Z,15.00
2019-02-21T06:12:07.064Z,14.03
2019-02-21T06:14:50.183Z,16.87
2019-02-21T06:17:30.694Z,15.53
2019-02-21T06:20:10.910Z,14.17
2019-02-21T06:22:53.089Z,14.37
2019-02-21T06:25:32.158Z,14.90
2019-02-21T06:28:21.008Z,16.10
2019-02-21T06:30:55.029Z,15.43
2019-02-21T06:33:28.050Z,15.27
2019-02-21T06:35:57.634Z,15.67
2019-02-21T06:38:28.069Z,15.60
2019-02-21T06:40:58.912Z,14.47
2019-02-21T06:43:29.366Z,15.30
2019-02-21T06:45:59.821Z,14.00
2019-02-21T06:48:30.609Z,13.47
2019-02-21T06:51:01.066Z,15.10
2019-02-21T06:53:31.552Z,14.30
2019-02-21T06:56:02.058Z,14.70
2019-02-21T06:58:32.529Z,13.67
2019-02-21T07:01:03.007Z,13.87
2019-02-21T07:03:33.458Z,12.37
2019-02-21T07:06:04.976Z,13.00
2019-02-21T07:08:35.443Z,12.87
2019-02-21T07:11:06.677Z,12.77
2019-02-21T07:13:37.357Z,12.87
2019-02-21T07:16:07.808Z,12.27
2019-02-21T07:18:40.826Z,13.60
2019-02-21T07:21:13.289Z,12.67
2019-02-21T07:23:44.013Z,13.23
2019-02-21T07:26:17.208Z,12.30
2019-02-21T07:28:47.670Z,12.80
2019-02-21T07:31:28.112Z,13.20
2019-02-21T07:33:51.501Z,16.47
2019-02-21T07:36:21.953Z,13.23
2019-02-21T07:39:01.293Z,13.47
2019-02-21T07:41:24.583Z,13.10
2019-02-21T07:43:55.599Z,14.27
2019-02-21T07:46:26.054Z,14.97
2019-02-21T07:48:56.526Z,13.23
2019-02-21T07:51:26.990Z,13.67
2019-02-21T07:53:57.490Z,13.53
2019-02-21T07:56:27.963Z,14.33
2019-02-21T07:58:58.409Z,14.33
2019-02-21T08:01:28.945Z,13.67
2019-02-21T08:03:59.392Z,14.83
2019-02-21T08:06:29.855Z,14.43
2019-02-21T08:09:00.342Z,14.70
2019-02-21T08:11:30.823Z,15.67
2019-02-21T08:14:01.264Z,15.27
2019-02-21T08:16:31.844Z,14.47
2019-02-21T08:19:02.327Z,14.40
2019-02-21T08:21:34.482Z,15.03
2019-02-21T08:24:08.498Z,14.73
2019-02-21T08:26:38.958Z,12.20
2019-02-21T08:29:09.407Z,12.47
2019-02-21T08:31:39.873Z,12.33
2019-02-21T08:34:33.125Z,12.77
2019-02-21T08:37:03.612Z,12.87
2019-02-21T08:39:34.087Z,12.87
2019-02-21T08:42:04.559Z,11.97
2019-02-21T08:44:35.001Z,12.93
2019-02-21T08:47:05.457Z,12.23
2019-02-21T08:49:36.217Z,11.30
2019-02-21T08:52:06.660Z,15.80
2019-02-21T08:54:37.117Z,15.57
2019-02-21T08:57:07.568Z,15.93
2019-02-21T08:59:38.342Z,14.33
2019-02-21T09:02:09.117Z,16.13
2019-02-21T09:04:39.569Z,16.13
2019-02-21T09:07:10.017Z,15.93
2019-02-21T09:09:40.496Z,14.87
2019-02-21T09:12:10.937Z,14.87
2019-02-21T09:14:41.403Z,13.60
2019-02-21T09:17:11.949Z,13.90
2019-02-21T09:19:42.391Z,12.23
2019-02-21T09:22:12.832Z,13.63
2019-02-21T09:24:43.629Z,12.63
2019-02-21T09:27:14.105Z,12.20
2019-02-21T09:29:44.873Z,12.60
2019-02-21T09:32:15.306Z,12.50
2019-02-21T09:34:46.064Z,11.30
2019-02-21T09:37:16.812Z,11.63
2019-02-21T09:39:47.283Z,12.13
2019-02-21T09:42:18.053Z,12.10
2019-02-21T09:44:49.826Z,12.27
2019-02-21T09:47:20.666Z,12.17
2019-02-21T09:49:52.134Z,12.73
2019-02-21T09:52:22.576Z,11.70
2019-02-21T09:54:54.309Z,11.97
2019-02-21T09:57:24.781Z,11.57
2019-02-21T09:59:55.229Z,11.63
2019-02-21T10:02:25.697Z,11.83
2019-02-21T10:05:04.521Z,12.00
2019-02-21T10:07:28.624Z,13.80
2019-02-21T10:10:00.975Z,13.63
2019-02-21T10:12:33.390Z,12.17
2019-02-21T10:15:03.841Z,12.90
2019-02-21T10:17:34.441Z,12.80
2019-02-21T10:20:06.301Z,12.63
2019-02-21T10:22:36.766Z,11.20
2019-02-21T10:25:10.801Z,10.97
2019-02-21T10:27:42.460Z,10.50
2019-02-21T10:30:15.445Z,12.23
2019-02-21T10:32:51.286Z,12.17
2019-02-21T10:35:21.752Z,11.70
2019-02-21T10:37:52.693Z,11.63
2019-02-21T10:40:23.245Z,10.97
2019-02-21T10:42:54.034Z,11.57
2019-02-21T10:45:24.489Z,11.00
2019-02-21T10:47:54.942Z,11.43
2019-02-21T10:50:26.460Z,11.33
2019-02-21T10:52:56.912Z,12.10
2019-02-21T10:55:27.362Z,11.00
2019-02-21T10:57:57.834Z,10.77
2019-02-21T11:00:29.160Z,10.77
2019-02-21T11:02:59.768Z,10.30
2019-02-21T11:05:30.235Z,10.47
2019-02-21T11:08:00.709Z,10.27
2019-02-21T11:10:31.153Z,9.80
2019-02-21T11:13:01.599Z,10.50
2019-02-21T11:15:32.076Z,10.10
2019-02-21T11:18:02.545Z,9.73
2019-02-21T11:20:33.029Z,10.60
2019-02-21T11:23:06.511Z,10.40
2019-02-21T11:25:36.832Z,10.43
2019-02-21T11:28:07.282Z,10.90
2019-02-21T11:30:38.074Z,9.30
2019-02-21T11:33:08.606Z,9.00
2019-02-21T11:35:39.290Z,8.07
2019-02-21T11:38:09.809Z,7.13
2019-02-21T11:40:40.275Z,7.73
2019-02-21T11:43:11.018Z,7.80
2019-02-21T11:45:41.469Z,6.90
2019-02-21T11:48:11.960Z,6.43
2019-02-21T11:50:43.366Z,7.37
2019-02-21T11:53:13.839Z,6.87
2019-02-21T11:55:44.297Z,7.23
2019-02-21T11:58:14.737Z,7.23
2019-02-21T12:00:45.216Z,7.10
2019-02-21T12:03:15.803Z,7.30
2019-02-21T12:05:46.606Z,6.67
2019-02-21T12:08:17.068Z,7.90
2019-02-21T12:10:47.601Z,7.17
2019-02-21T12:13:18.256Z,6.63
2019-02-21T12:15:48.735Z,6.93
2019-02-21T12:18:19.463Z,7.80
2019-02-21T12:20:49.980Z,7.47
2019-02-21T12:23:20.487Z,7.07
2019-02-21T12:25:51.077Z,7.07
2019-02-21T12:28:21.641Z,8.10
2019-02-21T12:30:52.073Z,7.73
2019-02-21T12:33:22.873Z,7.17
2019-02-21T12:35:53.895Z,8.10
2019-02-21T12:38:24.325Z,7.97
2019-02-21T12:40:54.811Z,8.03
2019-02-21T12:43:25.301Z,7.87
2019-02-21T12:46:00.550Z,8.00
2019-02-21T12:48:31.041Z,8.47
2019-02-21T12:51:01.515Z,8.77
2019-02-21T12:53:32.010Z,8.80
2019-02-21T12:56:02.858Z,8.57
2019-02-21T12:58:33.330Z,8.40
2019-02-21T13:01:03.774Z,8.70
2019-02-21T13:03:34.541Z,8.63
2019-02-21T13:06:05.004Z,7.63
2019-02-21T13:08:35.473Z,8.63
2019-02-21T13:11:05.969Z,8.00
2019-02-21T13:13:36.492Z,8.83
2019-02-21T13:16:06.959Z,9.60
2019-02-21T13:18:37.437Z,9.67
2019-02-21T13:21:07.920Z,8.37
2019-02-21T13:23:38.471Z,8.37
2019-02-21T13:26:08.930Z,9.53
2019-02-21T13:28:39.398Z,8.10
2019-02-21T13:31:09.897Z,7.50
2019-02-21T13:33:40.887Z,8.17
2019-02-21T13:36:11.481Z,8.47
2019-02-21T13:38:41.973Z,8.03
2019-02-21T13:41:12.617Z,8.60
2019-02-21T13:43:43.081Z,8.47
2019-02-21T13:46:13.653Z,8.13
2019-02-21T13:48:45.038Z,6.87
2019-02-21T13:51:15.487Z,7.17
2019-02-21T13:53:46.920Z,7.00
2019-02-21T13:56:17.401Z,7.63
2019-02-21T13:58:47.860Z,7.20
2019-02-21T14:01:18.666Z,7.13
2019-02-21T14:03:49.162Z,7.33
2019-02-21T14:06:19.596Z,6.33
2019-02-21T14:08:50.031Z,6.87
2019-02-21T14:11:20.541Z,7.17
2019-02-21T14:13:51.987Z,5.53
2019-02-21T14:16:22.791Z,6.30
2019-02-21T14:18:53.261Z,7.17
2019-02-21T14:21:23.703Z,5.83
2019-02-21T14:23:54.538Z,5.87
2019-02-21T14:26:25.005Z,5.63
2019-02-21T14:28:55.813Z,8.13
2019-02-21T14:31:26.289Z,6.80
2019-02-21T14:33:59.025Z,7.00
2019-02-21T14:36:29.598Z,7.67
2019-02-21T14:39:00.119Z,7.00
2019-02-21T14:41:30.849Z,6.83
2019-02-21T14:44:01.459Z,6.60
2019-02-21T14:46:31.913Z,6.77
2019-02-21T14:49:02.540Z,6.90
2019-02-21T14:51:33.230Z,7.07
2019-02-21T14:54:03.777Z,8.70
2019-02-21T14:56:34.241Z,7.47
2019-02-21T14:59:04.714Z,7.37
2019-02-21T15:01:35.193Z,8.23
2019-02-21T15:04:05.628Z,6.93
2019-02-21T15:06:36.093Z,7.20
2019-02-21T15:09:07.201Z,7.47
2019-02-21T15:11:38.014Z,7.30
2019-02-21T15:14:08.512Z,7.40
2019-02-21T15:16:39.069Z,7.73
2019-02-21T15:19:10.788Z,7.27
2019-02-21T15:21:41.277Z,7.60
2019-02-21T15:24:13.122Z,8.20
2019-02-21T15:26:43.824Z,7.43
2019-02-21T15:29:15.287Z,7.30
2019-02-21T15:31:46.123Z,7.57
2019-02-21T15:34:16.743Z,7.00
2019-02-21T15:36:47.311Z,6.97
2019-02-21T15:39:17.814Z,7.33
2019-02-21T15:41:48.319Z,7.03
2019-02-21T15:44:18.791Z,6.63
2019-02-21T15:46:49.646Z,6.60
2019-02-21T15:49:20.200Z,6.70
2019-02-21T15:51:51.008Z,7.40
2019-02-21T15:54:21.497Z,6.93
2019-02-21T15:56:51.966Z,7.40
2019-02-21T15:59:23.017Z,6.73
2019-02-21T16:01:53.802Z,6.60
2019-02-21T16:04:24.392Z,6.80
2019-02-21T16:06:55.226Z,7.00
2019-02-21T16:09:25.778Z,6.53
2019-02-21T16:11:56.829Z,7.17
2019-02-21T16:14:27.930Z,6.57
2019-02-21T16:16:58.479Z,6.87
2019-02-21T16:19:28.944Z,6.60
2019-02-21T16:21:59.465Z,6.93
2019-02-21T16:24:30.360Z,7.07
2019-02-21T16:27:00.809Z,7.03
2019-02-21T16:29:31.297Z,6.70
2019-02-21T16:32:01.748Z,7.30
2019-02-21T16:34:33.119Z,6.70
2019-02-21T16:37:03.803Z,6.17
2019-02-21T16:39:34.278Z,6.37
2019-02-21T16:42:04.753Z,6.40
2019-02-21T16:44:35.597Z,6.73
2019-02-21T16:47:06.082Z,6.63
2019-02-21T16:49:36.621Z,6.83
2019-02-21T16:52:07.404Z,6.67
2019-02-21T16:54:38.246Z,6.77
2019-02-21T16:57:09.041Z,7.10
2019-02-21T16:59:39.502Z,6.27
2019-02-21T17:02:10.341Z,7.50
2019-02-21T17:04:41.200Z,7.20
2019-02-21T17:07:17.363Z,7.40
2019-02-21T17:09:43.811Z,6.57
2019-02-21T17:12:14.304Z,6.80
2019-02-21T17:14:44.771Z,7.07
2019-02-21T17:17:15.594Z,7.73
2019-02-21T17:19:46.110Z,7.60
2019-02-21T17:22:16.618Z,6.77
2019-02-21T17:24:48.384Z,7.67
2019-02-21T17:27:18.854Z,7.63
2019-02-21T17:29:49.325Z,8.17
2019-02-21T17:32:19.793Z,7.27
2019-02-21T17:34:50.286Z,8.30
2019-02-21T17:37:24.841Z,6.97
2019-02-21T17:39:53.271Z,7.40
2019-02-21T17:42:23.879Z,8.23
2019-02-21T17:44:54.406Z,8.47
2019-02-21T17:47:24.889Z,8.40
2019-02-21T17:49:55.377Z,8.13
2019-02-21T17:52:25.836Z,7.77
2019-02-21T17:54:56.273Z,7.72
2019-02-21T17:57:26.762Z,8.80
2019-02-21T17:59:57.208Z,8.00
2019-02-21T18:02:27.759Z,7.60
2019-02-21T18:04:58.190Z,7.30
2019-02-21T18:07:36.074Z,7.77
2019-02-21T18:10:00.810Z,8.17
2019-02-21T18:12:31.278Z,7.80
2019-02-21T18:15:01.728Z,7.87
2019-02-21T18:17:32.733Z,7.17
2019-02-21T18:20:03.265Z,6.90
2019-02-21T18:22:33.798Z,8.13
2019-02-21T18:25:06.972Z,7.80
2019-02-21T18:27:37.417Z,7.80
2019-02-21T18:30:09.134Z,9.10
2019-02-21T18:32:39.913Z,8.43
2019-02-21T18:35:10.960Z,8.63
2019-02-21T18:37:47.396Z,8.23
2019-02-21T18:40:18.539Z,8.47
2019-02-21T18:42:47.514Z,9.53
2019-02-21T18:45:19.133Z,9.27
2019-02-21T18:47:49.644Z,8.77
2019-02-21T18:50:20.092Z,9.23
2019-02-21T18:52:50.580Z,10.47
2019-02-21T18:55:21.089Z,10.23
2019-02-21T18:57:51.562Z,9.60
2019-02-21T19:00:23.619Z,9.20
2019-02-21T19:02:58.536Z,8.99
2019-02-21T19:05:35.814Z,9.13
2019-02-21T19:08:05.363Z,8.87
2019-02-21T19:10:39.290Z,8.73
2019-02-21T19:13:09.945Z,8.90
2019-02-21T19:15:40.563Z,8.50
2019-02-21T19:18:11.033Z,9.07
2019-02-21T19:20:50.549Z,8.33
2019-02-21T19:23:35.229Z,10.80
2019-02-21T19:26:25.248Z,8.57
2019-02-21T19:29:19.495Z,8.68
2019-02-21T19:32:02.031Z,8.73
2019-02-21T19:34:47.303Z,8.60
2019-02-21T19:37:15.071Z,8.53
2019-02-21T19:39:45.877Z,8.63
2019-02-21T19:42:16.434Z,9.00
2019-02-21T19:44:46.965Z,9.23
2019-02-21T19:47:17.853Z,9.40
2019-02-21T19:49:48.340Z,8.30
2019-02-21T19:52:18.809Z,9.83
2019-02-21T19:54:49.248Z,8.73
2019-02-21T19:57:20.000Z,8.70
2019-02-21T19:59:50.447Z,8.47
2019-02-21T20:02:21.606Z,8.57
2019-02-21T20:04:52.475Z,8.87
2019-02-21T20:07:22.971Z,8.80
2019-02-21T20:09:53.521Z,9.27
2019-02-21T20:12:24.214Z,9.37
2019-02-21T20:14:57.282Z,8.87
2019-02-21T20:17:27.931Z,8.53
2019-02-21T20:22:34.025Z,8.70
2019-02-21T20:25:06.491Z,9.57
2019-02-21T20:27:36.977Z,9.03
2019-02-21T20:30:09.116Z,8.30
2019-02-21T20:32:40.726Z,8.47
2019-02-21T20:35:11.265Z,9.57
2019-02-21T20:37:42.959Z,8.90
2019-02-21T20:40:13.769Z,9.47
2019-02-21T20:42:44.426Z,8.47
2019-02-21T20:45:14.884Z,9.73
2019-02-21T20:47:45.986Z,8.67
2019-02-21T20:50:16.499Z,9.45
2019-02-21T20:52:47.014Z,8.90
2019-02-21T20:55:17.599Z,7.93
2019-02-21T20:57:48.094Z,8.90
2019-02-21T21:00:18.955Z,10.23
2019-02-21T21:02:49.820Z,11.48
2019-02-21T21:05:20.293Z,10.57
2019-02-21T21:07:50.768Z,10.30
2019-02-21T21:10:21.237Z,11.03
2019-02-21T21:12:52.176Z,10.45
2019-02-21T21:15:22.650Z,11.27
2019-02-21T21:17:53.097Z,10.60
2019-02-21T21:20:25.886Z,9.57
2019-02-21T21:22:55.702Z,9.10
2019-02-21T21:25:26.215Z,9.87
2019-02-21T21:27:56.738Z,10.20
2019-02-21T21:30:27.205Z,9.57
2019-02-21T21:32:57.835Z,9.33
2019-02-21T21:35:28.289Z,8.70
2019-02-21T21:37:58.766Z,8.60
2019-02-21T21:40:30.298Z,9.50
2019-02-21T21:43:01.098Z,9.20
2019-02-21T21:45:31.629Z,9.60
2019-02-21T21:48:03.512Z,7.40
2019-02-21T21:50:38.002Z,10.38
2019-02-21T21:53:09.124Z,9.37
2019-02-21T21:55:41.145Z,8.83
2019-02-21T21:58:16.076Z,9.40
2019-02-21T22:00:48.132Z,8.30
2019-02-21T22:03:19.923Z,9.80
2019-02-21T22:05:50.502Z,9.23
2019-02-21T22:08:22.043Z,9.60
2019-02-21T22:10:52.933Z,8.23
2019-02-21T22:13:23.372Z,10.35
2019-02-21T22:15:53.902Z,9.40
2019-02-21T22:18:24.466Z,8.50
2019-02-21T22:20:54.925Z,9.40
2019-02-21T22:23:26.345Z,8.27
2019-02-21T22:25:57.878Z,8.67
2019-02-21T22:28:29.593Z,8.20
2019-02-21T22:31:00.056Z,7.67
2019-02-21T22:33:30.865Z,7.70
2019-02-21T22:36:01.301Z,7.33
2019-02-21T22:38:31.769Z,8.07
2019-02-21T22:41:02.223Z,7.57
2019-02-21T22:43:33.122Z,7.37
2019-02-21T22:46:03.562Z,6.97
2019-02-21T22:48:34.041Z,8.63
2019-02-21T22:51:05.118Z,8.00
2019-02-21T22:53:35.589Z,8.30
2019-02-21T22:56:06.094Z,8.37
2019-02-21T22:58:44.759Z,7.40
2019-02-21T23:01:30.795Z,7.80
2019-02-21T23:04:23.320Z,7.37
2019-02-21T23:07:23.464Z,8.40
2019-02-21T23:09:54.465Z,8.30
2019-02-21T23:12:25.608Z,7.73
2019-02-21T23:14:56.096Z,8.50
2019-02-21T23:17:26.592Z,8.13
2019-02-21T23:19:57.061Z,9.57
2019-02-21T23:22:27.941Z,11.23
2019-02-21T23:24:58.450Z,10.33
2019-02-21T23:27:28.989Z,10.53
2019-02-21T23:29:59.533Z,10.70
2019-02-21T23:32:30.012Z,10.47
2019-02-21T23:35:00.493Z,11.27
2019-02-21T23:37:30.945Z,10.20
2019-02-21T23:40:01.407Z,10.30
2019-02-21T23:42:33.594Z,10.87
2019-02-21T23:45:04.497Z,11.12
2019-02-21T23:47:34.956Z,11.47
2019-02-21T23:50:05.649Z,10.70
2019-02-21T23:52:37.102Z,10.90
2019-02-21T23:55:07.575Z,11.07
2019-02-21T23:57:38.036Z,10.73
